Lyonsville, New Jersey
Current Conditions -  °F | °C
As of 6:53 PM on Thursday 18 Dec 2014 (Local Time) from KCDW Reporting Station
Overcast Overcast  
Wind Chill: 31°   Ceiling: 3100
Heat Index: 37°   Visibility: 10mi
Dew Point: 25°   Wind: 8mph
Humidity: 62%   Direction: 320°NW
Pressure: 29.98"   Gusts: NA
Location:  40.929°N, 74.4211°W
Report Text: KCDW 182353Z 32007KT 10SM OVC031 03/M04 A2998 RMK AO2 SLP159 T00281039 10050 20028 50001
Loading
Personal Weather Stations






























Interactive Weather Map New forecast layout! Learn more

10-Day Weather Forecast

Advertisements
Track Severe Weather on mobile